Time;durP1;ratioP1;P1;durP2;ratioP2;P2;SDS_P1;SDS_P2;PMS_P1;PMS_P2;Temp;Humidity;BMP_temperature;BMP_pressure;BME280_temperature;BME280_humidity;BME280_pressure;Samples;Min_cycle;Max_cycle;Signal;HPM_P1;HPM_P2
2022/10/12 00:01:40;;;;;;;10.93;5.00;;;8.00;99.90;;;;;;5046497;28;20444;-75
2022/10/12 00:04:05;;;;;;;9.27;4.28;;;8.00;99.90;;;;;;5047147;28;20401;-75
2022/10/12 00:06:31;;;;;;;8.57;4.33;;;8.00;99.90;;;;;;5046905;28;20451;-75
2022/10/12 00:08:56;;;;;;;9.57;4.28;;;8.00;99.90;;;;;;5046886;28;20436;-75
2022/10/12 00:11:25;;;;;;;10.70;4.40;;;8.00;99.90;;;;;;5045910;28;20405;-75
2022/10/12 00:13:51;;;;;;;11.15;4.80;;;8.00;99.90;;;;;;5044879;28;20421;-75
2022/10/12 00:16:19;;;;;;;10.32;4.57;;;7.90;99.90;;;;;;5046826;28;20409;-75
2022/10/12 00:18:52;;;;;;;10.75;4.68;;;7.90;99.90;;;;;;5046717;28;20408;-75
2022/10/12 00:21:19;;;;;;;7.15;4.20;;;7.90;99.90;;;;;;5045887;28;20516;-75
2022/10/12 00:23:45;;;;;;;10.43;4.97;;;7.80;99.90;;;;;;5029565;28;20412;-75
2022/10/12 00:26:17;;;;;;;9.63;4.87;;;7.80;99.90;;;;;;5046396;28;20409;-75
2022/10/12 00:28:43;;;;;;;10.57;4.88;;;7.80;99.90;;;;;;5047145;28;20440;-75
2022/10/12 00:31:17;;;;;;;10.77;5.00;;;7.80;99.90;;;;;;5047727;28;20405;-75
2022/10/12 00:33:43;;;;;;;8.25;4.38;;;7.80;99.90;;;;;;5017537;28;20455;-75
2022/10/12 00:36:12;;;;;;;10.20;4.50;;;7.80;99.90;;;;;;5046572;28;20409;-75
2022/10/12 00:38:38;;;;;;;9.38;4.68;;;7.80;99.90;;;;;;5045807;28;20417;-75
2022/10/12 00:41:04;;;;;;;10.43;4.80;;;7.80;99.90;;;;;;5047273;28;20819;-75
2022/10/12 00:43:37;;;;;;;9.52;4.28;;;7.80;99.90;;;;;;5046310;28;20405;-75
2022/10/12 00:46:10;;;;;;;10.77;4.90;;;7.80;99.90;;;;;;5016570;28;20418;-75
2022/10/12 00:48:36;;;;;;;10.50;4.90;;;7.80;99.90;;;;;;5047191;28;20456;-75
2022/10/12 00:51:03;;;;;;;10.27;5.27;;;7.80;99.90;;;;;;5045923;28;20406;-75
2022/10/12 00:53:37;;;;;;;9.27;5.10;;;7.80;99.90;;;;;;5045625;28;20401;-75
2022/10/12 00:56:08;;;;;;;9.20;4.80;;;7.70;99.90;;;;;;5045755;28;20405;-75
2022/10/12 00:58:33;;;;;;;10.45;4.88;;;7.80;99.90;;;;;;5045884;28;20961;-75
2022/10/12 01:01:03;;;;;;;10.23;5.03;;;7.70;99.90;;;;;;5047303;28;20480;-75
2022/10/12 01:03:30;;;;;;;12.05;5.07;;;7.70;99.90;;;;;;5047315;28;20409;-75
2022/10/12 01:05:55;;;;;;;9.85;4.90;;;7.70;99.90;;;;;;5046584;28;20416;-75
2022/10/12 01:08:21;;;;;;;7.80;4.50;;;7.70;99.90;;;;;;5046101;28;20441;-75
2022/10/12 01:10:47;;;;;;;8.52;4.47;;;7.70;99.90;;;;;;5046705;28;20409;-75
2022/10/12 01:13:13;;;;;;;8.77;4.87;;;7.70;99.90;;;;;;5045997;28;20405;-75
2022/10/12 01:15:56;;;;;;;8.48;4.82;;;7.70;99.90;;;;;;5046210;28;20413;-75
2022/10/12 01:18:28;;;;;;;9.67;5.03;;;7.70;99.90;;;;;;5034998;28;20916;-75
2022/10/12 01:21:17;;;;;;;13.07;5.28;;;7.70;99.90;;;;;;5047353;28;20490;-75
2022/10/12 01:23:54;;;;;;;10.27;4.90;;;7.60;99.90;;;;;;5045945;28;20446;-75
2022/10/12 01:27:01;;;;;;;9.95;5.18;;;7.70;99.90;;;;;;5046995;28;20421;-75
2022/10/12 01:30:03;;;;;;;13.07;5.75;;;7.60;99.90;;;;;;5045453;28;20440;-75
2022/10/12 01:32:56;;;;;;;8.13;4.53;;;7.60;99.90;;;;;;5047142;28;20433;-75
2022/10/12 01:35:36;;;;;;;9.27;4.80;;;7.60;99.90;;;;;;5030127;28;20496;-75
2022/10/12 01:38:33;;;;;;;7.97;4.53;;;7.60;99.90;;;;;;5039892;28;20768;-75
2022/10/12 01:41:19;;;;;;;9.48;4.90;;;7.60;99.90;;;;;;5049045;28;20417;-75
2022/10/12 01:43:45;;;;;;;9.17;4.80;;;7.50;99.90;;;;;;5050718;28;20417;-75
2022/10/12 01:46:14;;;;;;;10.27;5.13;;;7.50;99.90;;;;;;5050728;28;20456;-75
2022/10/12 01:48:41;;;;;;;11.05;5.35;;;7.50;99.90;;;;;;5049304;28;20477;-75
2022/10/12 01:51:10;;;;;;;8.70;5.05;;;7.50;99.90;;;;;;5049026;28;20409;-75
2022/10/12 01:53:48;;;;;;;10.35;6.00;;;7.50;99.90;;;;;;5049466;28;20492;-75
2022/10/12 01:56:27;;;;;;;10.75;6.05;;;7.50;99.90;;;;;;5049701;28;20824;-75
2022/10/12 01:59:13;;;;;;;10.52;6.15;;;7.50;99.90;;;;;;5050286;28;20920;-75
2022/10/12 02:01:56;;;;;;;9.68;5.60;;;7.50;99.90;;;;;;5049101;28;20418;-75
2022/10/12 02:04:38;;;;;;;11.50;6.37;;;7.50;99.90;;;;;;5050512;28;20431;-75
2022/10/12 02:07:11;;;;;;;11.55;5.55;;;7.40;99.90;;;;;;5039037;28;21022;-75
2022/10/12 02:09:37;;;;;;;9.00;5.32;;;7.40;99.90;;;;;;5048816;28;20475;-75
2022/10/12 02:12:17;;;;;;;9.48;5.40;;;7.30;99.90;;;;;;5048702;28;20500;-75
2022/10/12 02:14:49;;;;;;;10.80;5.10;;;7.30;99.90;;;;;;5048862;28;20532;-74
2022/10/12 02:17:19;;;;;;;11.98;5.20;;;7.30;99.90;;;;;;5049174;28;20417;-74
2022/10/12 02:20:00;;;;;;;7.80;4.90;;;7.30;99.90;;;;;;5049071;28;20440;-75
2022/10/12 02:22:33;;;;;;;6.85;4.38;;;7.30;99.90;;;;;;5032125;28;20924;-75
2022/10/12 02:25:02;;;;;;;8.10;4.57;;;7.20;99.90;;;;;;5048152;28;20847;-75
2022/10/12 02:27:28;;;;;;;8.52;4.75;;;7.20;99.90;;;;;;5048624;28;20822;-75
2022/10/12 02:29:54;;;;;;;7.33;4.23;;;7.20;99.90;;;;;;5049630;28;20796;-75
2022/10/12 02:32:39;;;;;;;7.85;4.35;;;7.20;99.90;;;;;;5049696;28;20512;-75
2022/10/12 02:35:11;;;;;;;7.20;4.10;;;7.10;99.90;;;;;;5049487;28;20424;-75
2022/10/12 02:38:00;;;;;;;7.07;4.20;;;7.20;99.90;;;;;;5047839;28;20504;-74
2022/10/12 02:40:29;;;;;;;8.93;4.38;;;7.10;99.90;;;;;;5048072;28;20416;-75
2022/10/12 02:43:00;;;;;;;7.00;4.23;;;7.10;99.90;;;;;;5048399;28;20406;-75
2022/10/12 02:45:27;;;;;;;5.75;3.92;;;7.10;99.90;;;;;;5049615;28;20410;-75
2022/10/12 02:47:56;;;;;;;6.13;3.95;;;7.10;99.90;;;;;;5047884;28;20479;-75
2022/10/12 02:50:23;;;;;;;6.03;4.10;;;7.10;99.90;;;;;;5049704;28;20397;-75
2022/10/12 02:52:51;;;;;;;6.22;4.18;;;7.10;99.90;;;;;;5048122;28;20405;-75
2022/10/12 02:55:17;;;;;;;6.20;3.47;;;7.10;99.90;;;;;;5048226;28;20757;-74
2022/10/12 02:57:42;;;;;;;7.07;4.00;;;7.10;99.90;;;;;;5048398;28;20467;-74
2022/10/12 03:00:09;;;;;;;7.20;3.70;;;7.20;99.90;;;;;;5031379;28;20488;-75
2022/10/12 03:02:34;;;;;;;5.25;3.58;;;7.20;99.90;;;;;;5048065;28;20650;-75
2022/10/12 03:05:00;;;;;;;6.73;3.60;;;7.10;99.90;;;;;;5049041;28;20401;-75
2022/10/12 03:07:25;;;;;;;5.70;3.70;;;7.20;99.90;;;;;;5048423;28;20421;-75
2022/10/12 03:09:51;;;;;;;9.60;3.90;;;7.10;99.90;;;;;;5048786;28;20429;-75
2022/10/12 03:12:16;;;;;;;5.53;3.67;;;7.20;99.90;;;;;;5047926;28;20417;-75
2022/10/12 03:14:42;;;;;;;6.30;3.60;;;7.20;99.90;;;;;;5048795;28;20443;-75
2022/10/12 03:17:08;;;;;;;5.73;3.97;;;7.20;99.90;;;;;;5048970;28;20409;-75
2022/10/12 03:19:34;;;;;;;6.35;4.10;;;7.20;99.90;;;;;;5047603;28;20458;-75
2022/10/12 03:21:59;;;;;;;5.70;4.00;;;7.20;99.90;;;;;;5048523;28;20481;-75
2022/10/12 03:24:25;;;;;;;5.80;4.20;;;7.20;99.90;;;;;;5048746;28;20476;-75
2022/10/12 03:26:50;;;;;;;5.55;3.58;;;7.20;99.90;;;;;;5047499;28;20423;-75
2022/10/12 03:29:16;;;;;;;5.93;3.73;;;7.30;99.90;;;;;;5048473;28;20528;-75
2022/10/12 03:31:42;;;;;;;7.40;3.97;;;7.30;99.90;;;;;;5048695;28;20520;-75
2022/10/12 03:34:07;;;;;;;6.70;4.00;;;7.30;99.90;;;;;;5048221;28;21236;-75
2022/10/12 03:36:33;;;;;;;6.30;3.75;;;7.30;99.90;;;;;;5048529;28;20444;-75
2022/10/12 03:38:58;;;;;;;7.33;4.40;;;7.30;99.90;;;;;;5048043;28;20457;-75
2022/10/12 03:41:24;;;;;;;7.03;4.13;;;7.30;99.90;;;;;;5047013;28;20441;-75
2022/10/12 03:43:50;;;;;;;6.67;4.00;;;7.30;99.90;;;;;;5048118;28;20484;-75
2022/10/12 03:46:15;;;;;;;5.70;3.85;;;7.30;99.90;;;;;;5048211;28;20409;-75
2022/10/12 03:48:41;;;;;;;6.57;4.03;;;7.30;99.90;;;;;;5046382;28;20430;-75
2022/10/12 03:51:06;;;;;;;8.35;4.18;;;7.30;99.90;;;;;;5047061;28;20414;-75
2022/10/12 03:53:32;;;;;;;6.57;4.53;;;7.30;99.90;;;;;;5047990;28;20892;-75
2022/10/12 03:55:57;;;;;;;7.82;4.65;;;7.30;99.90;;;;;;5046987;28;20411;-75
2022/10/12 03:58:23;;;;;;;7.23;4.70;;;7.30;99.90;;;;;;5046161;28;20416;-75
2022/10/12 04:00:53;;;;;;;9.98;5.40;;;7.30;99.90;;;;;;5046701;28;20523;-75
2022/10/12 04:03:18;;;;;;;7.45;5.10;;;7.30;99.90;;;;;;5046775;28;20417;-75
2022/10/12 04:05:50;;;;;;;7.82;5.05;;;7.30;99.90;;;;;;5046893;28;20742;-75
2022/10/12 04:08:16;;;;;;;7.72;4.75;;;7.30;99.90;;;;;;5043281;28;20446;-75
2022/10/12 04:10:43;;;;;;;9.27;4.82;;;7.40;99.90;;;;;;5037801;28;20405;-75
2022/10/12 04:13:08;;;;;;;8.57;4.82;;;7.40;99.90;;;;;;5047024;28;20401;-75
2022/10/12 04:15:34;;;;;;;9.70;4.90;;;7.40;99.90;;;;;;5047803;28;20405;-75
2022/10/12 04:17:59;;;;;;;7.05;4.20;;;7.40;99.90;;;;;;5043015;28;21381;-75
2022/10/12 04:20:25;;;;;;;10.17;4.47;;;7.40;99.90;;;;;;5039019;28;20402;-75
2022/10/12 04:22:51;;;;;;;9.63;4.38;;;7.30;99.90;;;;;;5046855;28;20401;-75
2022/10/12 04:25:16;;;;;;;8.63;4.47;;;7.30;99.90;;;;;;5046240;28;20405;-75
2022/10/12 04:27:42;;;;;;;7.30;4.40;;;7.30;99.90;;;;;;5046101;28;20405;-75
2022/10/12 04:30:08;;;;;;;7.57;4.70;;;7.30;99.90;;;;;;5046240;28;20404;-75
2022/10/12 04:32:34;;;;;;;9.38;4.03;;;7.30;99.90;;;;;;5046234;28;20457;-75
2022/10/12 04:34:59;;;;;;;6.93;4.40;;;7.30;99.90;;;;;;5047173;28;20423;-75
2022/10/12 04:37:26;;;;;;;10.93;4.03;;;7.30;99.90;;;;;;5046375;28;20413;-75
2022/10/12 04:39:52;;;;;;;9.87;4.40;;;7.30;99.90;;;;;;5046241;28;20409;-75
2022/10/12 04:42:18;;;;;;;9.40;4.15;;;7.30;99.90;;;;;;5047508;28;20400;-75
2022/10/12 04:44:43;;;;;;;8.67;4.17;;;7.30;99.90;;;;;;5043089;28;20411;-75
2022/10/12 04:47:09;;;;;;;8.35;4.07;;;7.30;99.90;;;;;;5043905;28;22331;-75
2022/10/12 04:49:34;;;;;;;8.33;4.20;;;7.30;99.90;;;;;;5047741;28;20437;-75
2022/10/12 04:52:00;;;;;;;7.68;4.72;;;7.30;99.90;;;;;;5046182;28;20754;-75
2022/10/12 04:54:25;;;;;;;9.30;4.60;;;7.30;99.90;;;;;;5048028;28;20405;-74
2022/10/12 04:56:51;;;;;;;8.23;4.30;;;7.30;99.90;;;;;;5047421;28;20416;-75
2022/10/12 04:59:17;;;;;;;8.40;4.67;;;7.30;99.90;;;;;;5046077;28;20788;-75
2022/10/12 05:01:42;;;;;;;7.75;4.28;;;7.30;99.90;;;;;;5046273;28;20402;-75
2022/10/12 05:04:08;;;;;;;9.80;4.90;;;7.30;99.90;;;;;;5042863;28;20766;-75
2022/10/12 05:06:34;;;;;;;8.60;4.40;;;7.30;99.90;;;;;;5058999;28;20421;-74
2022/10/12 05:08:59;;;;;;;7.70;4.30;;;7.20;99.90;;;;;;5046199;28;20829;-75
2022/10/12 05:11:25;;;;;;;9.30;4.90;;;7.30;99.90;;;;;;5050031;28;20410;-75
2022/10/12 05:13:50;;;;;;;8.73;4.43;;;7.20;99.90;;;;;;5051544;28;20405;-75
2022/10/12 05:16:16;;;;;;;11.98;4.80;;;7.30;99.90;;;;;;5051172;28;20417;-75
2022/10/12 05:18:41;;;;;;;9.70;4.50;;;7.30;99.90;;;;;;5049801;28;20776;-75
2022/10/12 05:21:07;;;;;;;9.80;4.70;;;7.20;99.90;;;;;;5051387;28;20462;-75
2022/10/12 05:23:33;;;;;;;8.03;4.53;;;7.20;99.90;;;;;;5049798;28;20502;-75
2022/10/12 05:25:58;;;;;;;10.65;5.32;;;7.20;99.90;;;;;;5051096;28;20409;-75
2022/10/12 05:28:24;;;;;;;10.77;4.67;;;7.10;99.90;;;;;;5046478;28;20856;-75
2022/10/12 05:30:50;;;;;;;11.60;4.70;;;7.10;99.90;;;;;;5047257;28;20420;-75
2022/10/12 05:33:16;;;;;;;11.93;4.68;;;7.10;99.90;;;;;;5049460;28;20412;-75
2022/10/12 05:35:43;;;;;;;9.70;4.57;;;7.10;99.90;;;;;;5049680;28;20504;-75
2022/10/12 05:38:09;;;;;;;12.38;5.10;;;7.10;99.90;;;;;;5049544;28;20413;-74
2022/10/12 05:40:35;;;;;;;8.25;4.35;;;7.00;99.90;;;;;;5049307;28;20441;-75
2022/10/12 05:43:00;;;;;;;10.35;4.78;;;7.00;99.90;;;;;;5045325;28;20502;-75
2022/10/12 05:45:26;;;;;;;11.53;4.97;;;7.00;99.90;;;;;;5048999;28;20405;-75
2022/10/12 05:47:51;;;;;;;10.10;4.82;;;7.00;99.90;;;;;;5046852;28;20433;-74
2022/10/12 05:50:17;;;;;;;16.37;5.97;;;6.90;99.90;;;;;;5046265;28;20420;-73
2022/10/12 05:52:43;;;;;;;14.50;5.60;;;7.00;99.90;;;;;;5032372;28;21003;-74
2022/10/12 05:55:09;;;;;;;13.68;5.65;;;6.90;99.90;;;;;;5048762;28;20543;-75
2022/10/12 05:57:36;;;;;;;12.68;5.18;;;6.90;99.90;;;;;;5049216;28;20484;-75
2022/10/12 06:00:04;;;;;;;15.80;5.78;;;6.90;99.90;;;;;;5049034;28;20405;-77
2022/10/12 06:02:29;;;;;;;13.57;5.38;;;6.80;99.90;;;;;;5044082;28;20452;-74
2022/10/12 06:04:55;;;;;;;12.52;6.35;;;6.80;99.90;;;;;;5050236;28;20448;-74
2022/10/12 06:07:21;;;;;;;14.53;6.07;;;6.80;99.90;;;;;;5047401;28;20421;-74
2022/10/12 06:09:47;;;;;;;13.32;6.18;;;6.80;99.90;;;;;;5054671;28;20550;-74
2022/10/12 06:12:14;;;;;;;15.88;5.90;;;6.80;99.90;;;;;;5049095;28;20413;-74
2022/10/12 06:14:39;;;;;;;15.10;6.57;;;6.80;99.90;;;;;;5050169;28;20539;-74
2022/10/12 06:17:05;;;;;;;13.35;6.43;;;6.70;99.90;;;;;;5050480;28;21049;-74
2022/10/12 06:19:31;;;;;;;16.58;6.95;;;6.80;99.90;;;;;;5043051;28;20409;-74
2022/10/12 06:21:56;;;;;;;17.40;6.90;;;6.80;99.90;;;;;;5045362;28;20421;-74
2022/10/12 06:24:22;;;;;;;15.55;7.47;;;6.80;99.90;;;;;;5046168;28;20421;-74
2022/10/12 06:26:47;;;;;;;15.23;6.87;;;6.70;99.90;;;;;;5045899;28;20430;-74
2022/10/12 06:29:13;;;;;;;15.27;7.40;;;6.80;99.90;;;;;;5045011;28;20437;-74
2022/10/12 06:31:38;;;;;;;14.20;7.37;;;6.80;99.90;;;;;;5049204;28;21025;-74
2022/10/12 06:34:04;;;;;;;15.87;7.43;;;6.80;99.90;;;;;;5049071;28;20405;-74
2022/10/12 06:36:30;;;;;;;15.32;7.60;;;6.70;99.90;;;;;;5048227;28;20480;-74
2022/10/12 06:38:55;;;;;;;16.53;8.30;;;6.80;99.90;;;;;;5047590;28;20463;-74
2022/10/12 06:41:21;;;;;;;17.93;7.93;;;6.80;99.90;;;;;;5047693;28;20490;-74
2022/10/12 06:43:46;;;;;;;21.27;8.73;;;6.80;99.90;;;;;;5043202;28;20426;-74
2022/10/12 06:46:12;;;;;;;20.80;8.80;;;6.80;99.90;;;;;;5045883;28;20424;-74
2022/10/12 06:48:38;;;;;;;19.40;9.50;;;6.80;99.90;;;;;;5030764;28;20839;-75
2022/10/12 06:51:03;;;;;;;17.85;9.57;;;6.90;99.90;;;;;;5048991;28;20401;-74
2022/10/12 06:53:31;;;;;;;21.53;9.60;;;6.90;99.90;;;;;;5047297;28;20777;-74
2022/10/12 06:55:57;;;;;;;21.35;9.80;;;7.00;99.90;;;;;;5046458;28;20429;-75
2022/10/12 06:58:23;;;;;;;19.17;10.13;;;7.00;99.90;;;;;;5051114;28;20421;-74
2022/10/12 07:00:48;;;;;;;19.58;9.95;;;7.10;99.90;;;;;;5028825;28;20800;-74
2022/10/12 07:03:15;;;;;;;19.97;10.17;;;7.10;99.90;;;;;;5073295;28;20436;-75
2022/10/12 07:05:41;;;;;;;20.20;9.80;;;7.20;99.90;;;;;;5043331;28;20429;-74
2022/10/12 07:08:06;;;;;;;19.27;9.70;;;7.20;99.90;;;;;;5047116;28;20436;-74
2022/10/12 07:10:32;;;;;;;19.67;9.30;;;7.30;99.90;;;;;;5048258;28;20405;-74
2022/10/12 07:12:57;;;;;;;20.45;9.43;;;7.40;99.90;;;;;;5052069;28;20409;-74
2022/10/12 07:15:23;;;;;;;23.00;10.38;;;7.40;99.90;;;;;;5048397;28;20441;-74
2022/10/12 07:17:49;;;;;;;21.73;9.67;;;7.50;99.90;;;;;;5048120;28;20824;-75
2022/10/12 07:20:14;;;;;;;21.63;9.63;;;7.50;99.90;;;;;;5046826;28;20413;-74
2022/10/12 07:22:40;;;;;;;20.77;9.80;;;7.60;99.90;;;;;;5048124;28;20799;-74
2022/10/12 07:25:06;;;;;;;18.60;9.65;;;7.60;99.90;;;;;;5029606;28;20742;-74
2022/10/12 07:27:32;;;;;;;21.15;9.55;;;7.70;99.90;;;;;;5046545;28;20430;-74
2022/10/12 07:29:57;;;;;;;18.10;9.20;;;7.80;99.90;;;;;;5045710;28;20516;-71
2022/10/12 07:32:23;;;;;;;18.02;9.32;;;7.70;99.90;;;;;;5038739;28;20459;-72
2022/10/12 07:34:48;;;;;;;22.17;9.23;;;7.80;99.90;;;;;;5047574;28;20393;-72
2022/10/12 07:37:14;;;;;;;14.25;8.30;;;7.90;99.90;;;;;;5044294;28;21257;-70
2022/10/12 07:39:40;;;;;;;19.40;9.67;;;7.90;99.90;;;;;;5046500;28;20409;-72
2022/10/12 07:42:06;;;;;;;20.70;10.27;;;8.00;99.90;;;;;;5046451;28;20516;-73
2022/10/12 07:44:32;;;;;;;19.67;10.15;;;8.00;99.90;;;;;;5048711;28;20397;-73
2022/10/12 07:46:57;;;;;;;16.63;9.20;;;8.00;99.90;;;;;;5047583;28;20402;-73
2022/10/12 07:49:23;;;;;;;21.87;10.00;;;8.10;99.90;;;;;;5043141;28;20469;-73
2022/10/12 07:51:49;;;;;;;18.45;9.93;;;8.10;99.90;;;;;;5030405;28;20475;-73
2022/10/12 07:54:14;;;;;;;19.43;10.30;;;8.20;99.90;;;;;;5045980;28;20425;-73
2022/10/12 07:56:40;;;;;;;17.90;9.55;;;8.20;99.90;;;;;;5046355;28;20788;-73
2022/10/12 07:59:06;;;;;;;21.00;10.17;;;8.30;99.90;;;;;;5042713;28;20424;-73
2022/10/12 08:01:32;;;;;;;19.67;10.02;;;8.40;99.90;;;;;;5046732;28;20414;-73
2022/10/12 08:03:58;;;;;;;20.23;11.10;;;8.40;99.90;;;;;;5048381;28;20524;-73
2022/10/12 08:06:27;;;;;;;17.80;9.73;;;8.50;99.90;;;;;;5046060;28;20500;-73
2022/10/12 08:08:53;;;;;;;21.02;9.93;;;8.60;99.90;;;;;;5047863;28;20461;-73
2022/10/12 08:11:20;;;;;;;18.65;9.35;;;8.70;99.90;;;;;;5029115;28;20471;-73
2022/10/12 08:13:46;;;;;;;16.30;9.32;;;8.80;99.90;;;;;;5047879;28;20942;-73
2022/10/12 08:16:15;;;;;;;17.92;9.50;;;8.90;99.90;;;;;;5046592;28;20928;-73
2022/10/12 08:18:41;;;;;;;21.30;9.73;;;9.00;99.90;;;;;;5046471;28;20401;-73
2022/10/12 08:21:08;;;;;;;17.88;9.57;;;9.00;99.90;;;;;;5046890;28;20406;-73
2022/10/12 08:23:35;;;;;;;16.95;9.75;;;9.00;99.90;;;;;;5048047;28;20904;-73
2022/10/12 08:26:01;;;;;;;17.48;8.68;;;9.00;99.90;;;;;;5044584;28;20415;-73
2022/10/12 08:28:27;;;;;;;18.48;9.52;;;9.00;99.90;;;;;;5050783;28;20822;-73
2022/10/12 08:30:53;;;;;;;16.90;9.60;;;9.00;99.90;;;;;;5046663;28;20408;-72
2022/10/12 08:33:19;;;;;;;18.75;9.40;;;9.00;99.90;;;;;;5047144;28;20417;-72
2022/10/12 08:35:46;;;;;;;18.90;9.93;;;9.10;99.90;;;;;;5046404;28;20416;-72
2022/10/12 08:38:13;;;;;;;18.45;10.27;;;9.10;99.90;;;;;;5047623;28;20424;-73
2022/10/12 08:40:55;;;;;;;18.05;10.00;;;9.20;99.90;;;;;;5046461;28;20422;-73
2022/10/12 08:43:32;;;;;;;18.73;9.90;;;9.30;99.90;;;;;;5041443;28;21011;-74
2022/10/12 08:46:01;;;;;;;20.85;10.75;;;9.30;99.90;;;;;;5049965;28;20441;-73
2022/10/12 08:48:44;;;;;;;19.80;10.05;;;9.40;99.90;;;;;;5050647;28;20472;-73
2022/10/12 08:51:15;;;;;;;18.35;9.13;;;9.50;99.90;;;;;;5049576;28;20486;-72
2022/10/12 08:53:50;;;;;;;19.38;8.60;;;9.60;99.90;;;;;;5048300;28;20459;-72
2022/10/12 08:56:17;;;;;;;18.38;8.38;;;9.80;99.90;;;;;;5046245;28;20409;-72
2022/10/12 08:58:45;;;;;;;18.05;8.77;;;10.00;99.90;;;;;;5047832;28;20446;-73
2022/10/12 09:01:20;;;;;;;13.47;7.50;;;10.90;99.90;;;;;;5050104;28;20413;-73
2022/10/12 09:04:14;;;;;;;16.95;7.38;;;12.10;99.90;;;;;;5047443;28;20513;-73
2022/10/12 09:06:53;;;;;;;11.68;6.15;;;13.50;99.90;;;;;;5048150;28;20451;-73
2022/10/12 09:09:26;;;;;;;12.25;6.30;;;14.60;99.90;;;;;;5042744;28;20439;-73
2022/10/12 09:12:29;;;;;;;14.07;5.50;;;15.10;99.90;;;;;;5049427;28;20493;-73
2022/10/12 09:15:00;;;;;;;11.75;5.18;;;15.40;99.90;;;;;;5045661;28;20981;-73
2022/10/12 09:17:30;;;;;;;14.53;5.57;;;15.30;99.90;;;;;;5047061;28;20870;-73
2022/10/12 09:20:24;;;;;;;15.90;6.10;;;15.10;99.90;;;;;;5048359;28;20453;-73
2022/10/12 09:22:54;;;;;;;10.43;5.30;;;15.10;99.90;;;;;;5050162;28;20432;-73
2022/10/12 09:25:24;;;;;;;12.00;5.30;;;15.70;99.90;;;;;;5045657;28;20417;-73
2022/10/12 09:27:50;;;;;;;16.27;5.85;;;15.70;99.90;;;;;;5049944;28;20924;-73
2022/10/12 09:30:19;;;;;;;12.20;4.85;;;16.00;99.90;;;;;;5049256;28;20409;-73
2022/10/12 09:33:17;;;;;;;11.68;4.57;;;16.90;99.90;;;;;;5046281;28;20407;-73
2022/10/12 09:35:44;;;;;;;11.52;4.30;;;17.80;99.90;;;;;;5049729;28;20817;-73
2022/10/12 09:38:10;;;;;;;9.95;4.25;;;17.80;99.90;;;;;;5050743;28;20834;-73
2022/10/12 09:40:37;;;;;;;12.35;4.75;;;17.40;99.90;;;;;;5050894;28;20718;-71
2022/10/12 09:43:04;;;;;;;12.20;4.27;;;16.90;99.90;;;;;;5050777;28;20408;-73
2022/10/12 09:45:33;;;;;;;12.52;4.95;;;16.60;99.90;;;;;;5049695;28;20417;-74
2022/10/12 09:48:20;;;;;;;14.77;4.97;;;16.20;99.90;;;;;;5052421;28;20915;-74
2022/10/12 09:50:53;;;;;;;13.18;4.70;;;15.80;99.90;;;;;;5081999;28;20960;-74
2022/10/12 09:53:44;;;;;;;11.80;4.70;;;15.50;99.90;;;;;;5050728;28;20463;-74
2022/10/12 09:56:23;;;;;;;13.10;4.90;;;15.20;99.90;;;;;;5047349;28;20476;-74
2022/10/12 09:58:54;;;;;;;13.48;4.50;;;14.90;99.90;;;;;;5048850;28;20417;-74
2022/10/12 10:01:25;;;;;;;13.32;5.10;;;14.70;99.90;;;;;;5049284;28;20421;-74
2022/10/12 10:04:10;;;;;;;14.18;4.53;;;14.50;99.90;;;;;;5048582;28;20428;-74
2022/10/12 10:06:38;;;;;;;13.93;5.10;;;14.40;99.90;;;;;;5045207;28;20508;-73
2022/10/12 10:09:04;;;;;;;12.70;5.25;;;14.60;99.90;;;;;;5048055;28;20479;-74
2022/10/12 10:11:31;;;;;;;10.18;4.28;;;14.90;99.90;;;;;;5050005;28;20405;-73
2022/10/12 10:13:59;;;;;;;13.47;4.20;;;15.70;99.90;;;;;;5050340;28;20405;-74
2022/10/12 10:16:27;;;;;;;10.57;4.07;;;16.90;99.90;;;;;;5049878;28;20409;-70
2022/10/12 10:18:53;;;;;;;10.63;3.75;;;17.80;99.90;;;;;;5045486;28;21031;-74
2022/10/12 10:21:32;;;;;;;8.47;3.63;;;18.50;99.90;;;;;;5048152;28;20433;-75
2022/10/12 10:24:03;;;;;;;12.07;4.50;;;19.20;99.90;;;;;;5044767;28;20413;-76
2022/10/12 10:26:50;;;;;;;10.68;4.00;;;19.90;99.90;;;;;;5048127;28;20409;-76
2022/10/12 10:29:30;;;;;;;10.60;3.80;;;20.60;99.80;;;;;;5044306;28;20936;-76
2022/10/12 10:32:28;;;;;;;12.10;3.67;;;21.20;97.10;;;;;;5040834;28;20448;-76
2022/10/12 10:35:13;;;;;;;13.45;3.42;;;21.70;96.60;;;;;;5047818;28;20998;-76
2022/10/12 10:37:58;;;;;;;9.98;3.22;;;22.20;95.80;;;;;;5040701;28;20496;-77
2022/10/12 10:40:50;;;;;;;11.40;3.67;;;22.50;95.10;;;;;;5048046;28;20451;-76
2022/10/12 10:43:35;;;;;;;11.73;3.22;;;23.00;94.80;;;;;;5048211;28;20381;-76
2022/10/12 10:46:29;;;;;;;10.55;3.40;;;23.40;92.70;;;;;;5045802;28;20414;-76
2022/10/12 10:49:05;;;;;;;9.18;2.53;;;23.70;92.50;;;;;;5045034;28;20940;-77
2022/10/12 10:51:45;;;;;;;9.90;2.87;;;23.90;92.20;;;;;;5048339;28;20413;-76
2022/10/12 10:54:23;;;;;;;9.07;2.67;;;24.40;92.10;;;;;;5041520;28;20520;-76
2022/10/12 10:57:05;;;;;;;8.45;2.75;;;24.80;91.10;;;;;;5047452;28;20475;-76
2022/10/12 10:59:52;;;;;;;9.30;2.53;;;25.10;89.10;;;;;;5048280;28;20413;-76
2022/10/12 11:02:45;;;;;;;8.57;2.40;;;25.40;87.10;;;;;;5044864;28;20789;-76
2022/10/12 11:05:17;;;;;;;7.82;2.30;;;25.50;83.30;;;;;;5031498;28;20428;-76
2022/10/12 11:07:48;;;;;;;8.57;2.25;;;25.60;84.60;;;;;;5046865;28;20417;-76
2022/10/12 11:10:31;;;;;;;9.65;2.67;;;25.80;79.90;;;;;;5039383;28;20974;-76
2022/10/12 11:13:15;;;;;;;8.02;2.10;;;25.90;81.00;;;;;;5029848;28;20425;-77
2022/10/12 11:15:47;;;;;;;9.05;1.92;;;26.00;80.20;;;;;;5076814;28;20493;-76
2022/10/12 11:18:24;;;;;;;7.72;2.00;;;26.00;79.20;;;;;;5045568;28;20425;-76
2022/10/12 11:21:21;;;;;;;7.72;2.30;;;26.20;77.60;;;;;;5046312;28;20776;-77
2022/10/12 11:23:52;;;;;;;8.20;2.10;;;26.50;77.00;;;;;;5011158;28;20414;-77
2022/10/12 11:26:20;;;;;;;11.73;2.17;;;26.70;76.30;;;;;;5046026;28;20405;-77
2022/10/12 11:28:46;;;;;;;7.53;2.10;;;26.70;73.70;;;;;;5042650;28;21317;-77
2022/10/12 11:31:36;;;;;;;8.30;1.98;;;26.80;73.40;;;;;;5029995;28;20405;-77
2022/10/12 11:34:07;;;;;;;5.65;1.60;;;26.90;68.40;;;;;;5045098;28;20417;-77
2022/10/12 11:36:37;;;;;;;7.90;1.67;;;26.60;70.00;;;;;;5039887;28;21581;-77
2022/10/12 11:39:07;;;;;;;6.68;1.70;;;26.60;67.00;;;;;;5017136;28;20439;-77
2022/10/12 11:41:47;;;;;;;6.60;1.60;;;26.50;66.80;;;;;;5026931;28;20479;-77
2022/10/12 11:44:25;;;;;;;6.13;1.58;;;26.30;65.80;;;;;;5009487;28;20442;-77
2022/10/12 11:47:12;;;;;;;7.53;1.70;;;26.40;65.90;;;;;;5026733;28;20918;-77
2022/10/12 11:50:30;;;;;;;5.93;1.40;;;26.70;67.90;;;;;;5017006;28;20444;-77
2022/10/12 11:52:58;;;;;;;6.25;1.55;;;26.90;66.30;;;;;;4950469;28;20432;-76
2022/10/12 11:55:43;;;;;;;7.78;1.63;;;27.00;66.50;;;;;;5023895;28;20944;-77
2022/10/12 11:58:20;;;;;;;7.07;1.83;;;27.30;64.10;;;;;;5020128;28;20489;-77
2022/10/12 12:01:01;;;;;;;5.45;1.50;;;27.40;63.60;;;;;;5019677;28;21010;-77
2022/10/12 12:04:03;;;;;;;5.72;1.52;;;27.40;62.90;;;;;;5021081;28;20957;-77
2022/10/12 12:06:28;;;;;;;7.70;1.60;;;27.40;63.60;;;;;;5024732;28;20432;-77
2022/10/12 12:09:01;;;;;;;7.80;1.40;;;27.50;62.20;;;;;;5026954;28;20445;-77
2022/10/12 12:11:29;;;;;;;5.60;1.20;;;27.70;61.40;;;;;;5025959;28;20961;-77
2022/10/12 12:14:20;;;;;;;6.32;1.10;;;27.90;60.90;;;;;;5025588;28;20458;-77
2022/10/12 12:16:47;;;;;;;6.00;1.37;;;27.90;60.10;;;;;;5026547;28;20423;-77
2022/10/12 12:19:36;;;;;;;5.63;1.23;;;27.90;59.80;;;;;;5026366;28;20415;-77
2022/10/12 12:22:16;;;;;;;6.95;1.42;;;27.90;60.20;;;;;;5017399;28;20775;-77
2022/10/12 12:25:07;;;;;;;6.45;1.10;;;28.10;58.80;;;;;;5026558;28;20426;-77
2022/10/12 12:27:59;;;;;;;6.63;1.17;;;28.30;60.20;;;;;;5026143;28;20431;-77
2022/10/12 12:30:38;;;;;;;5.43;0.82;;;28.40;58.60;;;;;;5020652;28;20527;-77
2022/10/12 12:33:16;;;;;;;4.50;0.90;;;28.40;57.70;;;;;;5026032;28;20431;-77
2022/10/12 12:36:03;;;;;;;6.22;1.20;;;28.40;56.70;;;;;;5025857;28;20496;-77
2022/10/12 12:38:33;;;;;;;5.75;1.00;;;28.30;55.00;;;;;;5025978;28;20443;-77
2022/10/12 12:41:05;;;;;;;4.47;1.10;;;28.00;55.40;;;;;;5013201;28;20843;-77
2022/10/12 12:43:31;;;;;;;5.30;1.02;;;27.90;55.80;;;;;;5026431;28;20474;-77
2022/10/12 12:46:11;;;;;;;8.10;1.50;;;28.00;55.30;;;;;;5024983;28;20510;-77
2022/10/12 12:48:46;;;;;;;5.00;1.10;;;28.10;52.50;;;;;;5025300;28;20474;-77
2022/10/12 12:51:36;;;;;;;6.28;1.38;;;27.80;54.40;;;;;;5026477;28;20411;-77
2022/10/12 12:54:12;;;;;;;5.78;1.13;;;27.80;55.50;;;;;;5010998;28;20512;-77
2022/10/12 12:57:10;;;;;;;5.90;1.00;;;28.00;54.80;;;;;;5026620;28;20456;-77
2022/10/12 13:00:14;;;;;;;6.40;1.30;;;28.10;54.10;;;;;;5025079;28;20490;-77
2022/10/12 13:03:07;;;;;;;5.53;1.40;;;28.30;55.30;;;;;;5018258;28;20411;-77
2022/10/12 13:05:55;;;;;;;5.57;1.25;;;28.50;54.20;;;;;;5024522;28;20986;-77
2022/10/12 13:08:42;;;;;;;7.95;1.58;;;28.60;54.70;;;;;;5022372;28;20463;-77
2022/10/12 13:11:29;;;;;;;7.45;1.30;;;28.70;53.20;;;;;;4999125;28;20436;-77